BAW2427 LFPG-KIAD
Flight info
| Callsign | BAW2427 |
|---|---|
| Flight time | N/A |
| Altitude | 43000 |
| Route | ELCOB UT300 SENLO DCT JSY DCT LIZAD DCT ARKIL DCT UNLID DCT LIMRI/M082F430 DCT 53N020W 53N030W 53N040W 52N050W DCT TUDEP/N0481F430 N526A TOPPS DCT KAYCC DCT KYLOH DCT BAF HYPER9 |
| Aircraft | CONC/H-HSDFIRWXC/LB1D1 |
Departure
| Time | 2026-05-05 00:21 |
|---|---|
| Airport | Charles de Gaulle International Airport (LFPG) |
Arrival
| Time | N/A |
|---|---|
| Airport | Washington Dulles International Airport (KIAD) |
| Time | Latitude | Longitude | Altitude | Speed | Heading |
|---|---|---|---|---|---|
| 2026-05-05 00:18 | 49.02066 | 2.51348 | 361 ft | 0 kts | 85° |
| 2026-05-05 00:20 | 49.02078 | 2.51558 | 366 ft | 62 kts | 85° |
| 2026-05-05 00:20 | 49.02151 | 2.52685 | 368 ft | 153 kts | 86° |
| 2026-05-05 00:21 | 49.02258 | 2.54770 | 364 ft | 227 kts | 85° |
| 2026-05-05 00:21 | 49.02422 | 2.57251 | 559 ft | 251 kts | 80° |
| 2026-05-05 00:21 | 49.02853 | 2.59833 | 1971 ft | 272 kts | 69° |
| 2026-05-05 00:21 | 49.03884 | 2.62528 | 2820 ft | 315 kts | 46° |
| 2026-05-05 00:22 | 49.05703 | 2.64676 | 3618 ft | 350 kts | 26° |
| 2026-05-05 00:22 | 49.08010 | 2.65774 | 4372 ft | 331 kts | 5° |
| 2026-05-05 00:22 | 49.10145 | 2.65484 | 5131 ft | 290 kts | 339° |
| 2026-05-05 00:22 | 49.11756 | 2.63997 | 5956 ft | 267 kts | 310° |
| 2026-05-05 00:23 | 49.12729 | 2.61541 | 6824 ft | 278 kts | 283° |
| 2026-05-05 00:23 | 49.12893 | 2.58615 | 7690 ft | 279 kts | 256° |
| 2026-05-05 00:23 | 49.12188 | 2.55869 | 8592 ft | 281 kts | 229° |
| 2026-05-05 00:23 | 49.10756 | 2.53858 | 9539 ft | 283 kts | 203° |
| 2026-05-05 00:24 | 49.08889 | 2.53001 | 10434 ft | 283 kts | 177° |
| 2026-05-05 00:24 | 49.06958 | 2.53472 | 11330 ft | 285 kts | 152° |
| 2026-05-05 00:24 | 49.05353 | 2.55163 | 12275 ft | 288 kts | 127° |
| 2026-05-05 00:24 | 49.04340 | 2.57831 | 13226 ft | 297 kts | 102° |
| 2026-05-05 00:25 | 49.04146 | 2.60968 | 14169 ft | 302 kts | 78° |
| 2026-05-05 00:25 | 49.04831 | 2.64017 | 15077 ft | 311 kts | 54° |
| 2026-05-05 00:25 | 49.06233 | 2.66561 | 15970 ft | 317 kts | 44° |
| 2026-05-05 00:25 | 49.07801 | 2.68970 | 16806 ft | 323 kts | 44° |
| 2026-05-05 00:26 | 49.09432 | 2.71388 | 17637 ft | 328 kts | 44° |
| 2026-05-05 00:26 | 49.11071 | 2.73757 | 18438 ft | 325 kts | 44° |
| 2026-05-05 00:26 | 49.12744 | 2.76138 | 19181 ft | 335 kts | 44° |
| 2026-05-05 00:26 | 49.14519 | 2.78537 | 19939 ft | 346 kts | 31° |
| 2026-05-05 00:27 | 49.16759 | 2.79911 | 20752 ft | 354 kts | 3° |
| 2026-05-05 00:27 | 49.19214 | 2.79606 | 21601 ft | 360 kts | 336° |
| 2026-05-05 00:27 | 49.21364 | 2.77654 | 22469 ft | 364 kts | 309° |
| 2026-05-05 00:27 | 49.22748 | 2.74446 | 23347 ft | 366 kts | 284° |
| 2026-05-05 00:28 | 49.23126 | 2.70558 | 23786 ft | 380 kts | 259° |
| 2026-05-05 00:28 | 49.22374 | 2.66591 | 23952 ft | 403 kts | 236° |
| 2026-05-05 00:28 | 49.20525 | 2.63216 | 23990 ft | 429 kts | 214° |
| 2026-05-05 00:28 | 49.17856 | 2.61060 | 23953 ft | 456 kts | 195° |
| 2026-05-05 00:29 | 49.14830 | 2.59475 | 23898 ft | 462 kts | 208° |
| 2026-05-05 00:29 | 49.12255 | 2.56563 | 23832 ft | 464 kts | 228° |
| 2026-05-05 00:29 | 49.10512 | 2.52418 | 23806 ft | 466 kts | 249° |
| 2026-05-05 00:29 | 49.09835 | 2.47575 | 23824 ft | 475 kts | 269° |
| 2026-05-05 00:30 | 49.10307 | 2.42457 | 23829 ft | 501 kts | 288° |
| 2026-05-05 00:30 | 49.11557 | 2.37476 | 23880 ft | 503 kts | 288° |
| 2026-05-05 00:30 | 49.12475 | 2.32345 | 23886 ft | 500 kts | 278° |
| 2026-05-05 00:30 | 49.12907 | 2.27099 | 23990 ft | 496 kts | 272° |
| 2026-05-05 00:31 | 49.13040 | 2.21892 | 24671 ft | 489 kts | 268° |
| 2026-05-05 00:31 | 49.12993 | 2.16617 | 25098 ft | 507 kts | 266° |
| 2026-05-05 00:31 | 49.12837 | 2.11140 | 25370 ft | 525 kts | 265° |
| 2026-05-05 00:31 | 49.12583 | 2.05433 | 25729 ft | 551 kts | 260° |
| 2026-05-05 00:32 | 49.12017 | 1.99607 | 27131 ft | 558 kts | 258° |
| 2026-05-05 00:32 | 49.11393 | 1.93742 | 28771 ft | 559 kts | 258° |
| 2026-05-05 00:32 | 49.10731 | 1.87850 | 29939 ft | 568 kts | 257° |
| 2026-05-05 00:32 | 49.10051 | 1.81879 | 30650 ft | 574 kts | 257° |
| 2026-05-05 00:33 | 49.09370 | 1.75867 | 31669 ft | 580 kts | 257° |
| 2026-05-05 00:33 | 49.08673 | 1.69723 | 32595 ft | 593 kts | 257° |
| 2026-05-05 00:33 | 49.07958 | 1.63444 | 33385 ft | 610 kts | 256° |
| 2026-05-05 00:33 | 49.07228 | 1.57060 | 34094 ft | 628 kts | 256° |
| 2026-05-05 00:34 | 49.06463 | 1.50404 | 34664 ft | 648 kts | 257° |
| 2026-05-05 00:34 | 49.05671 | 1.43536 | 35196 ft | 668 kts | 257° |
| 2026-05-05 00:34 | 49.04851 | 1.36465 | 35740 ft | 686 kts | 257° |
| 2026-05-05 00:34 | 49.04006 | 1.29215 | 36234 ft | 704 kts | 257° |
| 2026-05-05 00:35 | 49.03132 | 1.21767 | 36605 ft | 721 kts | 257° |
| 2026-05-05 00:35 | 49.02235 | 1.14174 | 37082 ft | 735 kts | 258° |
| 2026-05-05 00:35 | 49.01313 | 1.06411 | 37456 ft | 750 kts | 258° |
| 2026-05-05 00:35 | 49.00371 | 0.98531 | 37849 ft | 763 kts | 258° |
| 2026-05-05 00:36 | 48.99425 | 0.90509 | 38166 ft | 776 kts | 261° |
| 2026-05-05 00:36 | 48.99143 | 0.82246 | 38452 ft | 791 kts | 274° |
| 2026-05-05 00:36 | 48.99949 | 0.73900 | 38735 ft | 802 kts | 281° |
| 2026-05-05 00:36 | 49.01150 | 0.65548 | 38983 ft | 812 kts | 281° |
| 2026-05-05 00:37 | 49.02316 | 0.57084 | 39294 ft | 820 kts | 279° |
| 2026-05-05 00:37 | 49.03337 | 0.48489 | 39633 ft | 829 kts | 278° |
| 2026-05-05 00:37 | 49.04257 | 0.39765 | 39988 ft | 839 kts | 278° |
| 2026-05-05 00:37 | 49.05122 | 0.30909 | 40307 ft | 850 kts | 277° |
| 2026-05-05 00:38 | 49.05883 | 0.21925 | 40684 ft | 859 kts | 272° |
| 2026-05-05 00:38 | 49.06112 | 0.12778 | 41099 ft | 870 kts | 272° |
| 2026-05-05 00:38 | 49.06371 | 0.03499 | 41520 ft | 882 kts | 271° |
| 2026-05-05 00:38 | 49.06560 | -0.05929 | 41986 ft | 895 kts | 271° |
| 2026-05-05 00:39 | 49.06748 | -0.15368 | 42430 ft | 909 kts | 271° |
| 2026-05-05 00:39 | 49.06933 | -0.25080 | 42963 ft | 924 kts | 271° |
| 2026-05-05 00:39 | 49.07116 | -0.34953 | 43510 ft | 939 kts | 271° |
| 2026-05-05 00:39 | 49.07294 | -0.44990 | 44020 ft | 955 kts | 271° |
| 2026-05-05 00:40 | 49.07467 | -0.55214 | 44590 ft | 970 kts | 271° |
| 2026-05-05 00:40 | 49.07634 | -0.65578 | 45085 ft | 986 kts | 271° |
| 2026-05-05 00:40 | 49.07793 | -0.76103 | 45679 ft | 999 kts | 271° |
| 2026-05-05 00:40 | 49.07946 | -0.86784 | 46148 ft | 1014 kts | 271° |
| 2026-05-05 00:41 | 49.08090 | -0.97597 | 46568 ft | 1028 kts | 270° |
| 2026-05-05 00:41 | 49.08227 | -1.08579 | 46969 ft | 1041 kts | 270° |
| 2026-05-05 00:41 | 49.08498 | -1.19672 | 47327 ft | 1054 kts | 276° |
| 2026-05-05 00:41 | 49.09744 | -1.30747 | 47597 ft | 1067 kts | 285° |
| 2026-05-05 00:42 | 49.11880 | -1.41652 | 48081 ft | 1077 kts | 288° |
| 2026-05-05 00:42 | 49.13984 | -1.52679 | 48344 ft | 1088 kts | 282° |
| 2026-05-05 00:42 | 49.15735 | -1.63965 | 48617 ft | 1097 kts | 284° |
| 2026-05-05 00:42 | 49.17555 | -1.75340 | 48964 ft | 1106 kts | 283° |
| 2026-05-05 00:43 | 49.19357 | -1.86833 | 49243 ft | 1115 kts | 283° |
| 2026-05-05 00:43 | 49.21152 | -1.98397 | 49490 ft | 1123 kts | 283° |
| 2026-05-05 00:43 | 49.22981 | -2.10058 | 49683 ft | 1131 kts | 285° |
| 2026-05-05 00:43 | 49.25070 | -2.21707 | 49937 ft | 1138 kts | 283° |
| 2026-05-05 00:44 | 49.27056 | -2.33486 | 50185 ft | 1145 kts | 284° |
| 2026-05-05 00:44 | 49.29035 | -2.45149 | 50492 ft | 1150 kts | 284° |
| 2026-05-05 00:44 | 49.31033 | -2.57023 | 51014 ft | 1152 kts | 284° |
| 2026-05-05 00:44 | 49.33020 | -2.68928 | 51961 ft | 1150 kts | 284° |
| 2026-05-05 00:45 | 49.34992 | -2.80811 | 53146 ft | 1146 kts | 284° |
| 2026-05-05 00:45 | 49.36945 | -2.92670 | 53978 ft | 1146 kts | 284° |
| 2026-05-05 00:45 | 49.38888 | -3.04546 | 53976 ft | 1153 kts | 283° |
| 2026-05-05 00:45 | 49.40837 | -3.16548 | 53458 ft | 1163 kts | 284° |
| 2026-05-05 00:46 | 49.42789 | -3.28647 | 53275 ft | 1169 kts | 283° |
| 2026-05-05 00:46 | 49.44732 | -3.40787 | 54167 ft | 1164 kts | 283° |
| 2026-05-05 00:46 | 49.46646 | -3.52826 | 55678 ft | 1155 kts | 283° |
| 2026-05-05 00:46 | 49.48536 | -3.64809 | 56933 ft | 1150 kts | 283° |
| 2026-05-05 00:47 | 49.50386 | -3.76619 | 57584 ft | 1149 kts | 283° |
| 2026-05-05 00:47 | 49.52246 | -3.88581 | 57859 ft | 1150 kts | 283° |
| 2026-05-05 00:47 | 49.54096 | -4.00568 | 57969 ft | 1153 kts | 283° |
| 2026-05-05 00:48 | 49.57774 | -4.24673 | 58001 ft | 1155 kts | 283° |
| 2026-05-05 00:48 | 49.62754 | -4.48099 | 57718 ft | 1150 kts | 297° |
| 2026-05-05 00:49 | 49.70443 | -4.69706 | 57835 ft | 1145 kts | 296° |
| 2026-05-05 00:49 | 49.73848 | -4.80855 | 57700 ft | 1144 kts | 296° |
| 2026-05-05 00:49 | 49.77308 | -4.91929 | 57502 ft | 1144 kts | 295° |
| 2026-05-05 00:49 | 49.80689 | -5.03095 | 57186 ft | 1145 kts | 295° |
| 2026-05-05 00:50 | 49.84092 | -5.14268 | 56514 ft | 1149 kts | 295° |
| 2026-05-05 00:50 | 49.87493 | -5.25521 | 55711 ft | 1159 kts | 295° |
| 2026-05-05 00:50 | 49.90920 | -5.36902 | 55174 ft | 1168 kts | 295° |
| 2026-05-05 00:50 | 49.94300 | -5.48181 | 55646 ft | 1167 kts | 295° |
| 2026-05-05 00:51 | 49.97708 | -5.59606 | 56748 ft | 1162 kts | 295° |
| 2026-05-05 00:51 | 50.01091 | -5.70995 | 57486 ft | 1161 kts | 295° |
| 2026-05-05 00:51 | 50.04466 | -5.82416 | 57831 ft | 1162 kts | 295° |
| 2026-05-05 00:51 | 50.07829 | -5.93850 | 57989 ft | 1165 kts | 294° |
| 2026-05-05 00:52 | 50.11196 | -6.05349 | 58034 ft | 1168 kts | 294° |
| 2026-05-05 00:52 | 50.16833 | -6.24729 | 58050 ft | 1174 kts | 294° |
| 2026-05-05 00:53 | 50.23514 | -6.47903 | 58039 ft | 1180 kts | 294° |
| 2026-05-05 00:53 | 50.30221 | -6.71393 | 58047 ft | 1185 kts | 294° |
| 2026-05-05 00:54 | 50.36898 | -6.95014 | 58049 ft | 1189 kts | 294° |
| 2026-05-05 00:54 | 50.43549 | -7.18774 | 58066 ft | 1189 kts | 294° |
| 2026-05-05 00:55 | 50.50129 | -7.42527 | 58058 ft | 1181 kts | 293° |
| 2026-05-05 00:55 | 50.56624 | -7.66208 | 58087 ft | 1174 kts | 293° |
| 2026-05-05 00:56 | 50.63027 | -7.89794 | 58102 ft | 1168 kts | 293° |
| 2026-05-05 00:56 | 50.68812 | -8.13609 | 57969 ft | 1163 kts | 287° |
| 2026-05-05 00:57 | 50.73873 | -8.37805 | 57995 ft | 1158 kts | 289° |
| 2026-05-05 00:57 | 50.78942 | -8.61757 | 57997 ft | 1153 kts | 289° |
| 2026-05-05 00:58 | 50.83964 | -8.85791 | 58023 ft | 1149 kts | 289° |
| 2026-05-05 00:58 | 50.88927 | -9.09839 | 58010 ft | 1146 kts | 288° |
| 2026-05-05 00:59 | 50.93823 | -9.33863 | 58020 ft | 1143 kts | 288° |
| 2026-05-05 00:59 | 50.98656 | -9.57870 | 58023 ft | 1141 kts | 288° |
| 2026-05-05 01:00 | 51.03419 | -9.81827 | 58024 ft | 1138 kts | 288° |
| 2026-05-05 01:00 | 51.08081 | -10.05559 | 58034 ft | 1136 kts | 288° |
| 2026-05-05 01:01 | 51.12740 | -10.29574 | 58056 ft | 1134 kts | 287° |
| 2026-05-05 01:01 | 51.17314 | -10.53451 | 58040 ft | 1132 kts | 287° |
| 2026-05-05 01:02 | 51.21873 | -10.77464 | 58034 ft | 1130 kts | 290° |
| 2026-05-05 01:02 | 51.26817 | -11.01268 | 58045 ft | 1127 kts | 288° |
| 2026-05-05 01:03 | 51.31639 | -11.25057 | 58082 ft | 1125 kts | 288° |
| 2026-05-05 01:03 | 51.36410 | -11.48916 | 58071 ft | 1124 kts | 288° |
| 2026-05-05 01:04 | 51.41119 | -11.72751 | 58072 ft | 1122 kts | 288° |
| 2026-05-05 01:04 | 51.48079 | -12.08541 | 58078 ft | 1119 kts | 288° |
| 2026-05-05 01:05 | 51.52649 | -12.32408 | 58084 ft | 1117 kts | 287° |
| 2026-05-05 01:05 | 51.57159 | -12.56268 | 58085 ft | 1115 kts | 287° |
| 2026-05-05 01:06 | 51.61585 | -12.79975 | 58092 ft | 1114 kts | 287° |
| 2026-05-05 01:06 | 51.65987 | -13.03865 | 58091 ft | 1113 kts | 287° |
| 2026-05-05 01:07 | 51.70339 | -13.27790 | 58085 ft | 1111 kts | 287° |
| 2026-05-05 01:07 | 51.74641 | -13.51750 | 58113 ft | 1110 kts | 287° |
| 2026-05-05 01:08 | 51.78884 | -13.75702 | 58100 ft | 1109 kts | 286° |
| 2026-05-05 01:08 | 51.83076 | -13.99688 | 58114 ft | 1108 kts | 286° |
| 2026-05-05 01:09 | 51.87217 | -14.23704 | 58118 ft | 1107 kts | 286° |
| 2026-05-05 01:09 | 51.91304 | -14.47732 | 58125 ft | 1106 kts | 285° |
| 2026-05-05 01:10 | 51.95338 | -14.71781 | 58125 ft | 1105 kts | 285° |
| 2026-05-05 01:10 | 51.99326 | -14.95866 | 58122 ft | 1104 kts | 286° |
| 2026-05-05 01:11 | 52.02877 | -15.19969 | 58091 ft | 1104 kts | 284° |
| 2026-05-05 01:11 | 52.06328 | -15.44253 | 58152 ft | 1103 kts | 283° |
| 2026-05-05 01:12 | 52.09728 | -15.68571 | 58140 ft | 1102 kts | 283° |
| 2026-05-05 01:12 | 52.13075 | -15.92909 | 58142 ft | 1102 kts | 283° |
| 2026-05-05 01:13 | 52.16369 | -16.17262 | 58164 ft | 1101 kts | 283° |
| 2026-05-05 01:13 | 52.19612 | -16.41647 | 58169 ft | 1101 kts | 283° |
| 2026-05-05 01:14 | 52.22804 | -16.66056 | 58167 ft | 1100 kts | 282° |
| 2026-05-05 01:14 | 52.25946 | -16.90502 | 58178 ft | 1100 kts | 282° |
| 2026-05-05 01:15 | 52.29034 | -17.14961 | 58161 ft | 1100 kts | 282° |
| 2026-05-05 01:15 | 52.32054 | -17.39316 | 58184 ft | 1099 kts | 282° |
| 2026-05-05 01:16 | 52.35041 | -17.63840 | 58168 ft | 1099 kts | 282° |
| 2026-05-05 01:16 | 52.37974 | -17.88368 | 58204 ft | 1099 kts | 282° |
| 2026-05-05 01:17 | 52.40859 | -18.12952 | 58199 ft | 1099 kts | 281° |
| 2026-05-05 01:17 | 52.43689 | -18.37544 | 58198 ft | 1099 kts | 281° |
| 2026-05-05 01:18 | 52.46461 | -18.62095 | 58205 ft | 1099 kts | 281° |
| 2026-05-05 01:18 | 52.49189 | -18.86744 | 58221 ft | 1098 kts | 281° |
| 2026-05-05 01:19 | 52.51869 | -19.11450 | 58228 ft | 1098 kts | 281° |
| 2026-05-05 01:19 | 52.54478 | -19.36005 | 58194 ft | 1098 kts | 280° |
| 2026-05-05 01:20 | 52.57052 | -19.60741 | 58241 ft | 1097 kts | 280° |
| 2026-05-05 01:20 | 52.59573 | -19.85497 | 58247 ft | 1097 kts | 280° |
| 2026-05-05 01:21 | 52.62042 | -20.10270 | 58245 ft | 1097 kts | 280° |
| 2026-05-05 01:21 | 52.64459 | -20.35064 | 58250 ft | 1097 kts | 279° |
| 2026-05-05 01:22 | 52.66824 | -20.59894 | 58237 ft | 1096 kts | 279° |
| 2026-05-05 01:22 | 52.69135 | -20.84724 | 58251 ft | 1096 kts | 279° |
| 2026-05-05 01:23 | 52.71393 | -21.09569 | 58247 ft | 1095 kts | 279° |
| 2026-05-05 01:23 | 52.73586 | -21.34284 | 58257 ft | 1095 kts | 279° |
| 2026-05-05 01:24 | 52.75741 | -21.59185 | 58254 ft | 1095 kts | 278° |
| 2026-05-05 01:24 | 52.77839 | -21.84062 | 58258 ft | 1094 kts | 278° |
| 2026-05-05 01:25 | 52.79887 | -22.08984 | 58266 ft | 1093 kts | 278° |
| 2026-05-05 01:25 | 52.81881 | -22.33900 | 58257 ft | 1093 kts | 278° |
| 2026-05-05 01:26 | 52.83823 | -22.58837 | 58285 ft | 1092 kts | 278° |
| 2026-05-05 01:26 | 52.85699 | -22.83620 | 58238 ft | 1092 kts | 278° |
| 2026-05-05 01:27 | 52.87532 | -23.08551 | 58277 ft | 1091 kts | 277° |
| 2026-05-05 01:27 | 52.89313 | -23.33492 | 58280 ft | 1090 kts | 277° |
| 2026-05-05 01:28 | 52.90691 | -23.53346 | 58279 ft | 1089 kts | 277° |
| 2026-05-05 01:28 | 52.92375 | -23.78270 | 58279 ft | 1089 kts | 277° |
| 2026-05-05 01:29 | 52.94006 | -24.03227 | 58271 ft | 1088 kts | 277° |
| 2026-05-05 01:29 | 52.95580 | -24.28106 | 58281 ft | 1087 kts | 276° |
| 2026-05-05 01:30 | 52.97094 | -24.52883 | 58290 ft | 1086 kts | 276° |
| 2026-05-05 01:30 | 52.98558 | -24.77703 | 58280 ft | 1085 kts | 276° |
| 2026-05-05 01:31 | 52.99978 | -25.02660 | 58284 ft | 1085 kts | 276° |
| 2026-05-05 01:31 | 53.01343 | -25.27601 | 58273 ft | 1084 kts | 276° |
| 2026-05-05 01:32 | 53.02654 | -25.52524 | 58288 ft | 1083 kts | 276° |
| 2026-05-05 01:32 | 53.03913 | -25.77453 | 58266 ft | 1082 kts | 275° |
| 2026-05-05 01:33 | 53.05120 | -26.02418 | 58287 ft | 1082 kts | 275° |
| 2026-05-05 01:33 | 53.06273 | -26.27343 | 58291 ft | 1081 kts | 275° |
| 2026-05-05 01:34 | 53.07374 | -26.52282 | 58285 ft | 1081 kts | 275° |
| 2026-05-05 01:34 | 53.08423 | -26.77218 | 58286 ft | 1080 kts | 275° |
| 2026-05-05 01:35 | 53.09418 | -27.02167 | 58291 ft | 1080 kts | 274° |
| 2026-05-05 01:35 | 53.10361 | -27.27092 | 58291 ft | 1080 kts | 274° |
| 2026-05-05 01:36 | 53.11252 | -27.52053 | 58268 ft | 1080 kts | 274° |
| 2026-05-05 01:36 | 53.12085 | -27.76825 | 58287 ft | 1079 kts | 274° |
| 2026-05-05 01:37 | 53.12872 | -28.01822 | 58299 ft | 1079 kts | 274° |
| 2026-05-05 01:37 | 53.13607 | -28.26793 | 58294 ft | 1079 kts | 274° |
| 2026-05-05 01:38 | 53.14178 | -28.47566 | 58297 ft | 1080 kts | 273° |
| 2026-05-05 01:38 | 53.14816 | -28.72552 | 58277 ft | 1080 kts | 273° |
| 2026-05-05 01:39 | 53.15403 | -28.97568 | 58302 ft | 1080 kts | 273° |
| 2026-05-05 01:39 | 53.15938 | -29.22595 | 58309 ft | 1081 kts | 273° |
| 2026-05-05 01:40 | 53.16420 | -29.47644 | 58293 ft | 1081 kts | 272° |
| 2026-05-05 01:40 | 53.16850 | -29.72705 | 58304 ft | 1082 kts | 272° |
| 2026-05-05 01:41 | 53.17227 | -29.97786 | 58284 ft | 1082 kts | 272° |
| 2026-05-05 01:41 | 53.17551 | -30.22749 | 58310 ft | 1083 kts | 272° |
| 2026-05-05 01:42 | 53.17823 | -30.47854 | 58300 ft | 1083 kts | 272° |
| 2026-05-05 01:42 | 53.18043 | -30.73011 | 58312 ft | 1084 kts | 272° |
| 2026-05-05 01:43 | 53.18210 | -30.98169 | 58300 ft | 1084 kts | 271° |
| 2026-05-05 01:43 | 53.18324 | -31.23319 | 58291 ft | 1085 kts | 271° |
| 2026-05-05 01:44 | 53.18385 | -31.48479 | 58300 ft | 1086 kts | 271° |
| 2026-05-05 01:44 | 53.18394 | -31.73657 | 58283 ft | 1087 kts | 271° |
| 2026-05-05 01:45 | 53.18349 | -31.98885 | 58298 ft | 1088 kts | 271° |
| 2026-05-05 01:45 | 53.18251 | -32.23967 | 58302 ft | 1089 kts | 270° |
| 2026-05-05 01:46 | 53.18099 | -32.49216 | 58278 ft | 1090 kts | 270° |
| 2026-05-05 01:46 | 53.17894 | -32.74498 | 58291 ft | 1091 kts | 270° |
| 2026-05-05 01:47 | 53.17635 | -32.99800 | 58286 ft | 1092 kts | 270° |
| 2026-05-05 01:47 | 53.17322 | -33.25119 | 58300 ft | 1093 kts | 270° |
| 2026-05-05 01:48 | 53.16957 | -33.50316 | 58238 ft | 1094 kts | 269° |
| 2026-05-05 01:48 | 53.16534 | -33.75836 | 58271 ft | 1095 kts | 269° |
| 2026-05-05 01:49 | 53.16058 | -34.01234 | 58252 ft | 1097 kts | 269° |
| 2026-05-05 01:49 | 53.15531 | -34.26496 | 58259 ft | 1097 kts | 269° |
| 2026-05-05 01:50 | 53.14946 | -34.51927 | 58242 ft | 1099 kts | 268° |
| 2026-05-05 01:50 | 53.14306 | -34.77402 | 58217 ft | 1100 kts | 268° |
| 2026-05-05 01:51 | 53.13611 | -35.02868 | 58239 ft | 1101 kts | 268° |
| 2026-05-05 01:51 | 53.12907 | -35.26848 | 58229 ft | 1103 kts | 268° |
| 2026-05-05 01:52 | 53.12104 | -35.52393 | 58217 ft | 1104 kts | 267° |
| 2026-05-05 01:52 | 53.11251 | -35.77792 | 58220 ft | 1106 kts | 267° |
| 2026-05-05 01:53 | 53.10332 | -36.03527 | 58198 ft | 1108 kts | 266° |